Sahagun, Spain
Current Conditions -  °F | °C
As of 5:00 PM on Saturday 25 Oct 2014 (Local Time) from LELN Reporting Station
Few Clouds Few Clouds  
Wind Chill: 73°   Ceiling: Unl
Heat Index: 73°   Visibility: 6mi
Dew Point: 46°   Wind: 2mph
Humidity: 38%   Direction: NA
Pressure: 30.18"   Gusts: NA
Location:  42.37°N, 5.03°W
Report Text: LELN 251500Z VRB02KT 9999 FEW035CB 23/08 Q1022
Loading
Personal Weather Stations






























Interactive Weather Map
Tropical Storm Tracking
New forecast layout! Learn more

10-Day Weather Forecast

Advertisements
Track Severe Weather on mobile